Lake Dynasty — 3FZB2 — position and weather

sailwx.info

Track history (hours):
 
Tides and Currents Weather Stations Pressure Air Temp Water Temp Dewpoint Dewpoint Depression Visibility Wind Speed Wind Dir Waves Ship Positions

Lake Dynasty

Last reported at 2018-Feb-15 11:21 UTC. Time now 2018-Feb-19 08:25 UTC.
Position N 36°14' E 014°52'.

Length 182 m; draft 11.6 m.

Type: Cargo ship. MMSI: 370957000.

Date/timePositionNaut miles runAvg speedWind from/ knotsBaromVisibWave heightAir tempDewpointWater temp
2018-Feb-15 11:21N 36°14' E 014°52'513.6
2018-Feb-15 10:58N 36°17' E 014°47'613.7
2018-Feb-15 10:30N 36°20' E 014°40'713.5
2018-Feb-15 10:00N 36°24' E 014°33'713.6
2018-Feb-15 09:30N 36°28' E 014°26'713.6
2018-Feb-15 09:00N 36°31' E 014°18'713.6
2018-Feb-15 08:30N 36°34' E 014°11'713.7
2018-Feb-15 08:00N 36°38' E 014°03'713.6
2018-Feb-15 07:27N 36°42' E 013°56'613.6
2018-Feb-15 07:00N 36°45' E 013°49'713.6
2018-Feb-15 06:30N 36°49' E 013°42'  
2018-Feb-12 08:22N 36°01' W 005°11'615.9
2018-Feb-12 08:00N 35°60' W 005°18'816.1
2018-Feb-12 07:31N 35°57' W 005°27'26012.0
2018-Feb-11 09:53N 38°20' W 009°60'513.9
2018-Feb-11 09:30N 38°25' W 010°01'714.0
2018-Feb-11 09:00N 38°32' W 010°03'914.3
2018-Feb-11 08:25N 38°41' W 010°06'613.8
2018-Feb-11 08:00N 38°46' W 010°06'813.8
2018-Feb-11 07:27N 38°54' W 010°06'613.7
2018-Feb-11 07:00N 38°60' W 010°06'713.6
2018-Feb-11 06:30N 39°07' W 010°06'713.4
2018-Feb-11 06:00N 39°13' W 010°06'  
2018-Feb-08 18:00N 49°45' W 003°36'1912.6
2018-Feb-08 16:30N 49°54' W 003°10'612.4
2018-Feb-08 16:00N 49°57' W 003°02'612.1
2018-Feb-08 15:30N 49°59' W 002°53'611.9
2018-Feb-08 15:00N 50°01' W 002°44'4611.4
2018-Feb-08 11:00N 50°13' W 001°36'1313.3
2018-Feb-08 10:00N 50°17' W 001°16'5114.6
2018-Feb-08 06:30N 50°29' E 000°02'1414.1
2018-Feb-08 05:30N 50°34' E 000°23'713.7
2018-Feb-08 05:00N 50°35' E 000°33'713.2
2018-Feb-08 04:30N 50°38' E 000°43'713.1
2018-Feb-08 04:00N 50°42' E 000°52'1313.0
2018-Feb-08 03:00N 50°49' E 001°09'713.3
2018-Feb-08 02:30N 50°54' E 001°16'714.3
2018-Feb-08 02:00N 50°59' E 001°24'815.4
2018-Feb-08 01:31N 51°05' E 001°32'815.8
2018-Feb-08 01:01N 51°10' E 001°41'815.7
2018-Feb-08 00:30N 51°17' E 001°48'815.0
2018-Feb-08 00:00N 51°23' E 001°54'714.6
2018-Feb-07 23:30N 51°28' E 002°03'714.1
2018-Feb-07 23:00N 51°34' E 002°10'713.7
2018-Feb-07 22:30N 51°40' E 002°15'713.3
2018-Feb-07 22:00N 51°45' E 002°21'712.9
2018-Feb-07 21:30N 51°50' E 002°29'92 7.6
2018-Feb-07 09:29N 52°24' E 004°47'0 0.0
2018-Feb-07 08:59N 52°24' E 004°47'0 0.0
2018-Feb-07 08:29N 52°24' E 004°47'0 0.0
2018-Feb-07 07:59N 52°24' E 004°47'0 0.0
2018-Feb-07 07:29N 52°24' E 004°47'0 0.0
2018-Feb-07 06:59N 52°24' E 004°47'0 0.0
2018-Feb-07 06:29N 52°24' E 004°47'0 0.0
2018-Feb-07 05:59N 52°24' E 004°47'0 0.0
2018-Feb-07 05:29N 52°24' E 004°47'0 0.0
2018-Feb-07 04:59N 52°24' E 004°47'0 0.0
2018-Feb-07 04:29N 52°24' E 004°47'0 0.0
2018-Feb-07 03:59N 52°24' E 004°47'0 0.0
2018-Feb-07 03:29N 52°24' E 004°47'0 0.0
2018-Feb-07 02:59N 52°24' E 004°47'0 0.0
2018-Feb-07 02:29N 52°24' E 004°47'0 0.0
2018-Feb-07 01:59N 52°24' E 004°47'0 0.0
2018-Feb-07 01:29N 52°24' E 004°47'0 0.0
2018-Feb-07 00:59N 52°24' E 004°47'0 0.0
2018-Feb-07 00:29N 52°24' E 004°47'0 0.0
2018-Feb-06 23:59N 52°24' E 004°47'0 0.0
2018-Feb-06 23:29N 52°24' E 004°47'0 0.0
2018-Feb-06 22:59N 52°24' E 004°47'0 0.0
2018-Feb-06 22:26N 52°24' E 004°47'0 0.0
2018-Feb-06 21:59N 52°24' E 004°47'0 0.0
2018-Feb-06 21:29N 52°24' E 004°47'0 0.0
2018-Feb-06 20:59N 52°24' E 004°47'0 0.0
2018-Feb-06 20:29N 52°24' E 004°47'0 0.0
2018-Feb-06 19:59N 52°24' E 004°47'0 0.0
2018-Feb-06 19:29N 52°24' E 004°47'0 0.0
2018-Feb-06 18:59N 52°24' E 004°47'0 0.0
2018-Feb-06 18:29N 52°24' E 004°47'0 0.0
2018-Feb-06 17:59N 52°24' E 004°47'0 0.0
2018-Feb-06 17:29N 52°24' E 004°47'0 0.0
2018-Feb-06 16:59N 52°24' E 004°47'0 0.0
2018-Feb-06 16:29N 52°24' E 004°47'0 0.0
2018-Feb-06 15:59N 52°24' E 004°47'0 0.0
2018-Feb-06 15:29N 52°24' E 004°47'0 0.0
2018-Feb-06 14:59N 52°24' E 004°47'0 0.0
2018-Feb-06 14:29N 52°24' E 004°47'0 0.0
2018-Feb-06 13:59N 52°24' E 004°47'0 0.0
2018-Feb-06 13:29N 52°24' E 004°47'0 0.0
2018-Feb-06 12:59N 52°24' E 004°47'0 0.0
2018-Feb-06 12:29N 52°24' E 004°47'0 0.0
2018-Feb-06 11:59N 52°24' E 004°47'0 0.0
2018-Feb-06 11:26N 52°24' E 004°47'0 0.0
2018-Feb-06 10:59N 52°24' E 004°47'0 0.0
2018-Feb-06 10:29N 52°24' E 004°47'0 0.0
2018-Feb-06 09:59N 52°24' E 004°47'0 0.0
2018-Feb-06 09:29N 52°24' E 004°47'0 0.0
2018-Feb-06 08:59N 52°24' E 004°47'0 0.0
2018-Feb-06 08:29N 52°24' E 004°47'0 0.0
2018-Feb-06 07:59N 52°24' E 004°47'0 0.0
2018-Feb-06 07:29N 52°24' E 004°47'0 0.0
2018-Feb-06 06:59N 52°24' E 004°47'0 0.0
2018-Feb-06 06:29N 52°24' E 004°47'0 0.0
2018-Feb-06 05:59N 52°24' E 004°47'0 0.0
2018-Feb-06 05:29N 52°24' E 004°47'0 0.0
2018-Feb-06 04:59N 52°24' E 004°47'0 0.0
2018-Feb-06 04:29N 52°24' E 004°47'0 0.0
2018-Feb-06 03:59N 52°24' E 004°47'0 0.0
2018-Feb-06 03:29N 52°24' E 004°47'0 0.0
2018-Feb-06 02:59N 52°24' E 004°47'0 0.0
2018-Feb-06 02:29N 52°24' E 004°47'0 0.0
2018-Feb-06 01:59N 52°24' E 004°47'0 0.0
2018-Feb-06 01:29N 52°24' E 004°47'0 0.0
2018-Feb-06 00:59N 52°24' E 004°47'0 0.0
2018-Feb-06 00:29N 52°24' E 004°47'0 0.0
2018-Feb-05 23:59N 52°24' E 004°47'0 0.0
2018-Feb-05 23:29N 52°24' E 004°47'0 0.0
2018-Feb-05 22:59N 52°24' E 004°47'0 0.0
2018-Feb-05 22:26N 52°24' E 004°47'0 0.0
2018-Feb-05 21:59N 52°24' E 004°47'0 0.0
2018-Feb-05 21:29N 52°24' E 004°47'0 0.0
2018-Feb-05 20:59N 52°24' E 004°47'0 0.0
2018-Feb-05 20:29N 52°24' E 004°47'0 0.0
2018-Feb-05 19:59N 52°24' E 004°47'0 0.0
2018-Feb-05 19:29N 52°24' E 004°47'0 0.0
2018-Feb-05 18:59N 52°24' E 004°47'0 0.0
2018-Feb-05 18:29N 52°24' E 004°47'0 0.0
2018-Feb-05 17:59N 52°24' E 004°47'0 0.0
2018-Feb-05 17:29N 52°24' E 004°47'0 0.0
2018-Feb-05 16:59N 52°24' E 004°47'0 0.0
2018-Feb-05 16:29N 52°24' E 004°47'0 0.0
2018-Feb-05 15:59N 52°24' E 004°47'0 0.0
2018-Feb-05 15:29N 52°24' E 004°47'0 0.0
2018-Feb-05 14:59N 52°24' E 004°47'0 0.0
2018-Feb-05 14:29N 52°24' E 004°47'0 0.0
2018-Feb-05 13:59N 52°24' E 004°47'0 0.0
2018-Feb-05 13:29N 52°24' E 004°47'0 0.0
2018-Feb-05 12:59N 52°24' E 004°47'0 0.0
2018-Feb-05 12:29N 52°24' E 004°47'0 0.0
2018-Feb-05 11:59N 52°24' E 004°47'0 0.0
2018-Feb-05 11:29N 52°24' E 004°47'  
Track history (hours):
 
Tides and Currents Weather Stations Pressure Air Temp Water Temp Dewpoint Dewpoint Depression Visibility Wind Speed Wind Dir Waves Ship Positions

Lake Dynasty

Last reported at 2018-Feb-15 11:21 UTC. Time now 2018-Feb-19 08:25 UTC.
Position N 36°14' E 014°52'.

Length 182 m; draft 11.6 m.

Type: Cargo ship. MMSI: 370957000.

Date/timePositionNaut miles runAvg speedWind from/ knotsBaromVisibWave heightAir tempDewpointWater temp
2018-Feb-15 11:21N 36°14' E 014°52'513.6
2018-Feb-15 10:58N 36°17' E 014°47'613.7
2018-Feb-15 10:30N 36°20' E 014°40'713.5
2018-Feb-15 10:00N 36°24' E 014°33'713.6
2018-Feb-15 09:30N 36°28' E 014°26'713.6
2018-Feb-15 09:00N 36°31' E 014°18'713.6
2018-Feb-15 08:30N 36°34' E 014°11'713.7
2018-Feb-15 08:00N 36°38' E 014°03'713.6
2018-Feb-15 07:27N 36°42' E 013°56'613.6
2018-Feb-15 07:00N 36°45' E 013°49'713.6
2018-Feb-15 06:30N 36°49' E 013°42'  
2018-Feb-12 08:22N 36°01' W 005°11'615.9
2018-Feb-12 08:00N 35°60' W 005°18'816.1
2018-Feb-12 07:31N 35°57' W 005°27'26012.0
2018-Feb-11 09:53N 38°20' W 009°60'513.9
2018-Feb-11 09:30N 38°25' W 010°01'714.0
2018-Feb-11 09:00N 38°32' W 010°03'914.3
2018-Feb-11 08:25N 38°41' W 010°06'613.8
2018-Feb-11 08:00N 38°46' W 010°06'813.8
2018-Feb-11 07:27N 38°54' W 010°06'613.7
2018-Feb-11 07:00N 38°60' W 010°06'713.6
2018-Feb-11 06:30N 39°07' W 010°06'713.4
2018-Feb-11 06:00N 39°13' W 010°06'  
2018-Feb-08 18:00N 49°45' W 003°36'1912.6
2018-Feb-08 16:30N 49°54' W 003°10'612.4
2018-Feb-08 16:00N 49°57' W 003°02'612.1
2018-Feb-08 15:30N 49°59' W 002°53'611.9
2018-Feb-08 15:00N 50°01' W 002°44'4611.4
2018-Feb-08 11:00N 50°13' W 001°36'1313.3
2018-Feb-08 10:00N 50°17' W 001°16'5114.6
2018-Feb-08 06:30N 50°29' E 000°02'1414.1
2018-Feb-08 05:30N 50°34' E 000°23'713.7
2018-Feb-08 05:00N 50°35' E 000°33'713.2
2018-Feb-08 04:30N 50°38' E 000°43'713.1
2018-Feb-08 04:00N 50°42' E 000°52'1313.0
2018-Feb-08 03:00N 50°49' E 001°09'713.3
2018-Feb-08 02:30N 50°54' E 001°16'714.3
2018-Feb-08 02:00N 50°59' E 001°24'815.4
2018-Feb-08 01:31N 51°05' E 001°32'815.8
2018-Feb-08 01:01N 51°10' E 001°41'815.7
2018-Feb-08 00:30N 51°17' E 001°48'815.0
2018-Feb-08 00:00N 51°23' E 001°54'714.6
2018-Feb-07 23:30N 51°28' E 002°03'714.1
2018-Feb-07 23:00N 51°34' E 002°10'713.7
2018-Feb-07 22:30N 51°40' E 002°15'713.3
2018-Feb-07 22:00N 51°45' E 002°21'712.9
2018-Feb-07 21:30N 51°50' E 002°29'92 7.6
2018-Feb-07 09:29N 52°24' E 004°47'0 0.0
2018-Feb-07 08:59N 52°24' E 004°47'0 0.0
2018-Feb-07 08:29N 52°24' E 004°47'0 0.0
2018-Feb-07 07:59N 52°24' E 004°47'0 0.0
2018-Feb-07 07:29N 52°24' E 004°47'0 0.0
2018-Feb-07 06:59N 52°24' E 004°47'0 0.0
2018-Feb-07 06:29N 52°24' E 004°47'0 0.0
2018-Feb-07 05:59N 52°24' E 004°47'0 0.0
2018-Feb-07 05:29N 52°24' E 004°47'0 0.0
2018-Feb-07 04:59N 52°24' E 004°47'0 0.0
2018-Feb-07 04:29N 52°24' E 004°47'0 0.0
2018-Feb-07 03:59N 52°24' E 004°47'0 0.0
2018-Feb-07 03:29N 52°24' E 004°47'0 0.0
2018-Feb-07 02:59N 52°24' E 004°47'0 0.0
2018-Feb-07 02:29N 52°24' E 004°47'0 0.0
2018-Feb-07 01:59N 52°24' E 004°47'0 0.0
2018-Feb-07 01:29N 52°24' E 004°47'0 0.0
2018-Feb-07 00:59N 52°24' E 004°47'0 0.0
2018-Feb-07 00:29N 52°24' E 004°47'0 0.0
2018-Feb-06 23:59N 52°24' E 004°47'0 0.0
2018-Feb-06 23:29N 52°24' E 004°47'0 0.0
2018-Feb-06 22:59N 52°24' E 004°47'0 0.0
2018-Feb-06 22:26N 52°24' E 004°47'0 0.0
2018-Feb-06 21:59N 52°24' E 004°47'0 0.0
2018-Feb-06 21:29N 52°24' E 004°47'0 0.0
2018-Feb-06 20:59N 52°24' E 004°47'0 0.0
2018-Feb-06 20:29N 52°24' E 004°47'0 0.0
2018-Feb-06 19:59N 52°24' E 004°47'0 0.0
2018-Feb-06 19:29N 52°24' E 004°47'0 0.0
2018-Feb-06 18:59N 52°24' E 004°47'0 0.0
2018-Feb-06 18:29N 52°24' E 004°47'0 0.0
2018-Feb-06 17:59N 52°24' E 004°47'0 0.0
2018-Feb-06 17:29N 52°24' E 004°47'0 0.0
2018-Feb-06 16:59N 52°24' E 004°47'0 0.0
2018-Feb-06 16:29N 52°24' E 004°47'0 0.0
2018-Feb-06 15:59N 52°24' E 004°47'0 0.0
2018-Feb-06 15:29N 52°24' E 004°47'0 0.0
2018-Feb-06 14:59N 52°24' E 004°47'0 0.0
2018-Feb-06 14:29N 52°24' E 004°47'0 0.0
2018-Feb-06 13:59N 52°24' E 004°47'0 0.0
2018-Feb-06 13:29N 52°24' E 004°47'0 0.0
2018-Feb-06 12:59N 52°24' E 004°47'0 0.0
2018-Feb-06 12:29N 52°24' E 004°47'0 0.0
2018-Feb-06 11:59N 52°24' E 004°47'0 0.0
2018-Feb-06 11:26N 52°24' E 004°47'0 0.0
2018-Feb-06 10:59N 52°24' E 004°47'0 0.0
2018-Feb-06 10:29N 52°24' E 004°47'0 0.0
2018-Feb-06 09:59N 52°24' E 004°47'0 0.0
2018-Feb-06 09:29N 52°24' E 004°47'0 0.0
2018-Feb-06 08:59N 52°24' E 004°47'0 0.0
2018-Feb-06 08:29N 52°24' E 004°47'0 0.0
2018-Feb-06 07:59N 52°24' E 004°47'0 0.0
2018-Feb-06 07:29N 52°24' E 004°47'0 0.0
2018-Feb-06 06:59N 52°24' E 004°47'0 0.0
2018-Feb-06 06:29N 52°24' E 004°47'0 0.0
2018-Feb-06 05:59N 52°24' E 004°47'0 0.0
2018-Feb-06 05:29N 52°24' E 004°47'0 0.0
2018-Feb-06 04:59N 52°24' E 004°47'0 0.0
2018-Feb-06 04:29N 52°24' E 004°47'0 0.0
2018-Feb-06 03:59N 52°24' E 004°47'0 0.0
2018-Feb-06 03:29N 52°24' E 004°47'0 0.0
2018-Feb-06 02:59N 52°24' E 004°47'0 0.0
2018-Feb-06 02:29N 52°24' E 004°47'0 0.0
2018-Feb-06 01:59N 52°24' E 004°47'0 0.0
2018-Feb-06 01:29N 52°24' E 004°47'0 0.0
2018-Feb-06 00:59N 52°24' E 004°47'0 0.0
2018-Feb-06 00:29N 52°24' E 004°47'0 0.0
2018-Feb-05 23:59N 52°24' E 004°47'0 0.0
2018-Feb-05 23:29N 52°24' E 004°47'0 0.0
2018-Feb-05 22:59N 52°24' E 004°47'0 0.0
2018-Feb-05 22:26N 52°24' E 004°47'0 0.0
2018-Feb-05 21:59N 52°24' E 004°47'0 0.0
2018-Feb-05 21:29N 52°24' E 004°47'0 0.0
2018-Feb-05 20:59N 52°24' E 004°47'0 0.0
2018-Feb-05 20:29N 52°24' E 004°47'0 0.0
2018-Feb-05 19:59N 52°24' E 004°47'0 0.0
2018-Feb-05 19:29N 52°24' E 004°47'0 0.0
2018-Feb-05 18:59N 52°24' E 004°47'0 0.0
2018-Feb-05 18:29N 52°24' E 004°47'0 0.0
2018-Feb-05 17:59N 52°24' E 004°47'0 0.0
2018-Feb-05 17:29N 52°24' E 004°47'0 0.0
2018-Feb-05 16:59N 52°24' E 004°47'0 0.0
2018-Feb-05 16:29N 52°24' E 004°47'0 0.0
2018-Feb-05 15:59N 52°24' E 004°47'0 0.0
2018-Feb-05 15:29N 52°24' E 004°47'0 0.0
2018-Feb-05 14:59N 52°24' E 004°47'0 0.0
2018-Feb-05 14:29N 52°24' E 004°47'0 0.0
2018-Feb-05 13:59N 52°24' E 004°47'0 0.0
2018-Feb-05 13:29N 52°24' E 004°47'0 0.0
2018-Feb-05 12:59N 52°24' E 004°47'0 0.0
2018-Feb-05 12:29N 52°24' E 004°47'0 0.0
2018-Feb-05 11:59N 52°24' E 004°47'0 0.0
2018-Feb-05 11:29N 52°24' E 004°47'  

Dump ship's entire track history